createdAt,value
2023-04-02T00:01:27.079Z,22.79
2023-04-02T00:04:22.599Z,22.79
2023-04-02T00:06:57.233Z,22.78
2023-04-02T00:09:35.001Z,22.78
2023-04-02T00:12:21.110Z,22.80
2023-04-02T00:14:58.553Z,22.79
2023-04-02T00:17:29.125Z,22.79
2023-04-02T00:20:06.831Z,22.80
2023-04-02T00:22:37.377Z,22.80
2023-04-02T00:25:16.938Z,22.81
2023-04-02T00:27:47.930Z,22.80
2023-04-02T00:30:20.351Z,22.80
2023-04-02T00:32:52.112Z,22.79
2023-04-02T00:35:29.254Z,22.77
2023-04-02T00:38:00.484Z,22.74
2023-04-02T00:40:33.824Z,22.71
2023-04-02T00:43:06.454Z,22.69
2023-04-02T00:45:41.641Z,22.67
2023-04-02T00:48:36.839Z,22.65
2023-04-02T00:51:20.570Z,22.62
2023-04-02T00:53:54.457Z,22.61
2023-04-02T00:56:30.800Z,22.57
2023-04-02T00:59:01.954Z,22.57
2023-04-02T01:01:43.004Z,22.55
2023-04-02T01:04:34.570Z,22.55
2023-04-02T01:07:11.078Z,22.53
2023-04-02T01:10:26.216Z,22.52
2023-04-02T01:13:10.953Z,22.50
2023-04-02T01:15:50.923Z,22.50
2023-04-02T01:18:50.788Z,22.49
2023-04-02T01:21:55.859Z,22.48
2023-04-02T01:24:32.881Z,22.47
2023-04-02T01:27:08.553Z,22.48
2023-04-02T01:29:46.561Z,22.48
2023-04-02T01:32:21.187Z,22.48
2023-04-02T01:34:54.205Z,22.48
2023-04-02T01:37:39.807Z,22.48
2023-04-02T01:40:35.280Z,22.47
2023-04-02T01:43:20.147Z,22.46
2023-04-02T01:45:52.827Z,22.46
2023-04-02T01:48:28.405Z,22.47
2023-04-02T01:51:04.533Z,22.47
2023-04-02T01:53:35.160Z,22.46
2023-04-02T01:56:07.920Z,22.46
2023-04-02T01:58:38.449Z,22.45
2023-04-02T02:01:18.709Z,22.46
2023-04-02T02:03:49.968Z,22.45
2023-04-02T02:06:21.918Z,22.45
2023-04-02T02:08:57.363Z,22.44
2023-04-02T02:11:32.432Z,22.44
2023-04-02T02:14:08.034Z,22.45
2023-04-02T02:16:43.870Z,22.44
2023-04-02T02:19:28.306Z,22.44
2023-04-02T02:22:12.319Z,22.42
2023-04-02T02:24:43.592Z,22.43
2023-04-02T02:27:51.327Z,22.42
2023-04-02T02:30:29.543Z,22.41
2023-04-02T02:33:09.270Z,22.41
2023-04-02T02:35:51.440Z,22.40
2023-04-02T02:38:54.394Z,22.38
2023-04-02T02:41:36.038Z,22.34
2023-04-02T02:44:15.870Z,22.32
2023-04-02T02:46:52.986Z,22.31
2023-04-02T02:49:32.795Z,22.32
2023-04-02T02:52:09.604Z,22.29
2023-04-02T02:54:46.180Z,22.29
2023-04-02T02:57:23.081Z,22.29
2023-04-02T02:59:56.193Z,22.28
2023-04-02T03:02:29.963Z,22.27
2023-04-02T03:05:03.282Z,22.28
2023-04-02T03:07:34.052Z,22.27
2023-04-02T03:10:17.119Z,22.26
2023-04-02T03:12:54.972Z,22.25
2023-04-02T03:15:36.039Z,22.25
2023-04-02T03:18:14.456Z,22.24
2023-04-02T03:20:54.672Z,22.24
2023-04-02T03:23:32.673Z,22.24
2023-04-02T03:26:10.979Z,22.23
2023-04-02T03:28:49.010Z,22.22
2023-04-02T03:31:28.506Z,22.22
2023-04-02T03:34:03.556Z,22.21
2023-04-02T03:36:47.071Z,22.21
2023-04-02T03:39:26.703Z,22.21
2023-04-02T03:42:05.788Z,22.21
2023-04-02T03:44:46.051Z,22.21
2023-04-02T03:47:26.917Z,22.20
2023-04-02T03:50:04.081Z,22.20
2023-04-02T03:52:40.231Z,22.19
2023-04-02T03:55:18.394Z,22.18
2023-04-02T03:58:00.700Z,22.16
2023-04-02T04:00:40.011Z,22.15
2023-04-02T04:03:18.183Z,22.14
2023-04-02T04:05:55.897Z,22.13
2023-04-02T04:08:38.518Z,22.12
2023-04-02T04:11:16.933Z,22.13
2023-04-02T04:13:54.873Z,22.13
2023-04-02T04:16:32.645Z,22.13
2023-04-02T04:19:08.604Z,22.13
2023-04-02T04:21:39.627Z,22.13
2023-04-02T04:24:24.886Z,22.14
2023-04-02T04:27:04.418Z,22.13
2023-04-02T04:29:47.507Z,22.12
2023-04-02T04:32:32.709Z,22.13
2023-04-02T04:35:16.904Z,22.13
2023-04-02T04:37:54.454Z,22.13
2023-04-02T04:40:29.694Z,22.15
2023-04-02T04:43:06.765Z,22.15
2023-04-02T04:45:50.522Z,22.17
2023-04-02T04:48:29.805Z,22.18
2023-04-02T04:51:06.431Z,22.20
2023-04-02T04:53:43.581Z,22.22
2023-04-02T04:56:20.087Z,22.25
2023-04-02T04:58:56.442Z,22.28
2023-04-02T05:01:35.499Z,22.32
2023-04-02T05:04:16.835Z,22.37
2023-04-02T05:06:55.009Z,22.42
2023-04-02T05:09:33.658Z,22.46
2023-04-02T05:12:20.101Z,22.51
2023-04-02T05:14:58.748Z,22.58
2023-04-02T05:17:36.961Z,22.63
2023-04-02T05:20:17.842Z,22.70
2023-04-02T05:22:55.744Z,22.76
2023-04-02T05:25:30.208Z,22.82
2023-04-02T05:28:10.022Z,22.89
2023-04-02T05:30:53.080Z,22.97
2023-04-02T05:33:30.588Z,23.05
2023-04-02T05:36:05.987Z,23.13
2023-04-02T05:38:40.494Z,23.21
2023-04-02T05:41:27.269Z,23.27
2023-04-02T05:44:11.629Z,23.32
2023-04-02T05:46:52.779Z,23.40
2023-04-02T05:49:32.194Z,23.45
2023-04-02T05:52:06.229Z,23.52
2023-04-02T05:54:46.397Z,23.60
2023-04-02T05:57:35.823Z,23.68
2023-04-02T06:00:25.850Z,23.78
2023-04-02T06:03:07.765Z,23.84
2023-04-02T06:05:44.790Z,23.93
2023-04-02T06:08:23.370Z,24.02
2023-04-02T06:11:03.413Z,24.08
2023-04-02T06:13:33.346Z,24.15
2023-04-02T06:16:05.362Z,24.21
2023-04-02T06:18:39.351Z,24.29
2023-04-02T06:21:11.353Z,24.36
2023-04-02T06:23:50.054Z,24.43
2023-04-02T06:26:27.411Z,24.51
2023-04-02T06:29:09.015Z,24.58
2023-04-02T06:31:49.409Z,24.65
2023-04-02T06:34:23.276Z,24.73
2023-04-02T06:36:59.896Z,24.80
2023-04-02T06:39:31.371Z,24.88
2023-04-02T06:42:09.792Z,24.95
2023-04-02T06:44:41.988Z,25.03
2023-04-02T06:47:29.697Z,25.10
2023-04-02T06:50:09.523Z,25.18
2023-04-02T06:52:47.099Z,25.25
2023-04-02T06:55:39.481Z,25.33
2023-04-02T06:58:11.480Z,25.39
2023-04-02T07:00:46.305Z,25.46
2023-04-02T07:03:25.524Z,25.54
2023-04-02T07:05:56.749Z,25.61
2023-04-02T07:08:27.853Z,25.67
2023-04-02T07:10:58.849Z,25.74
2023-04-02T07:13:28.876Z,25.81
2023-04-02T07:15:59.462Z,25.88
2023-04-02T07:18:35.443Z,25.93
2023-04-02T07:21:05.455Z,25.98
2023-04-02T07:23:35.985Z,26.03
2023-04-02T07:26:07.622Z,26.09
2023-04-02T07:28:37.971Z,26.13
2023-04-02T07:31:20.342Z,26.20
2023-04-02T07:33:52.366Z,26.25
2023-04-02T07:36:25.418Z,26.30
2023-04-02T07:38:55.801Z,26.37
2023-04-02T07:41:26.640Z,26.42
2023-04-02T07:43:57.073Z,26.48
2023-04-02T07:46:27.269Z,26.54
2023-04-02T07:48:59.165Z,26.58
2023-04-02T07:51:29.803Z,26.60
2023-04-02T07:54:02.238Z,26.63
2023-04-02T07:56:33.094Z,26.67
2023-04-02T07:59:03.747Z,26.71
2023-04-02T08:01:36.399Z,26.77
2023-04-02T08:04:09.632Z,26.82
2023-04-02T08:06:40.049Z,26.87
2023-04-02T08:09:09.836Z,26.94
2023-04-02T08:11:40.561Z,27.00
2023-04-02T08:14:11.285Z,27.06
2023-04-02T08:16:50.599Z,27.12
2023-04-02T08:19:23.019Z,27.17
2023-04-02T08:21:55.468Z,27.22
2023-04-02T08:24:25.411Z,27.27
2023-04-02T08:26:56.009Z,27.32
2023-04-02T08:29:26.533Z,27.36
2023-04-02T08:31:56.609Z,27.41
2023-04-02T08:34:29.656Z,27.46
2023-04-02T08:37:01.209Z,27.50
2023-04-02T08:39:33.579Z,27.55
2023-04-02T08:42:20.035Z,27.61
2023-04-02T08:45:21.264Z,27.65
2023-04-02T08:48:00.348Z,27.69
2023-04-02T08:50:37.248Z,27.75
2023-04-02T08:53:17.515Z,27.79
2023-04-02T08:56:05.136Z,27.83
2023-04-02T08:58:44.209Z,27.86
2023-04-02T09:01:27.396Z,27.90
2023-04-02T09:04:01.084Z,27.93
2023-04-02T09:06:33.931Z,27.96
2023-04-02T09:09:05.512Z,27.99
2023-04-02T09:11:47.975Z,28.02
2023-04-02T09:14:22.938Z,28.04
2023-04-02T09:16:56.993Z,28.10
2023-04-02T09:19:36.175Z,28.10
2023-04-02T09:22:16.276Z,28.11
2023-04-02T09:24:46.327Z,28.13
2023-04-02T09:27:23.548Z,28.16
2023-04-02T09:30:01.234Z,28.18
2023-04-02T09:32:50.549Z,28.19
2023-04-02T09:35:26.902Z,28.19
2023-04-02T09:38:22.912Z,28.20
2023-04-02T09:41:00.186Z,28.21
2023-04-02T09:43:32.587Z,28.22
2023-04-02T09:46:05.665Z,28.23
2023-04-02T09:48:40.366Z,28.25
2023-04-02T09:51:17.809Z,28.27
2023-04-02T09:53:53.154Z,28.28
2023-04-02T09:56:26.949Z,28.28
2023-04-02T09:59:09.479Z,28.31
2023-04-02T10:01:42.953Z,28.31
2023-04-02T10:04:38.019Z,28.32
2023-04-02T10:07:09.408Z,28.32
2023-04-02T10:09:41.270Z,28.34
2023-04-02T10:12:17.524Z,28.36
2023-04-02T10:14:52.461Z,28.37
2023-04-02T10:17:27.819Z,28.37
2023-04-02T10:20:06.915Z,28.39
2023-04-02T10:22:37.727Z,28.40
2023-04-02T10:25:17.752Z,28.42
2023-04-02T10:27:59.227Z,28.42
2023-04-02T10:30:38.099Z,28.43
2023-04-02T10:33:20.592Z,28.43
2023-04-02T10:36:03.890Z,28.43
2023-04-02T10:38:44.834Z,28.41
2023-04-02T10:41:33.600Z,28.40
2023-04-02T10:44:37.178Z,28.37
2023-04-02T10:47:32.052Z,28.35
2023-04-02T10:50:31.572Z,28.35
2023-04-02T10:53:13.838Z,28.33
2023-04-02T10:55:50.477Z,28.31
2023-04-02T10:58:29.262Z,28.31
2023-04-02T11:01:05.670Z,28.28
2023-04-02T11:03:42.309Z,28.27
2023-04-02T11:06:23.127Z,28.27
2023-04-02T11:09:01.596Z,28.25
2023-04-02T11:11:41.310Z,28.23
2023-04-02T11:14:20.256Z,28.23
2023-04-02T11:16:53.338Z,28.22
2023-04-02T11:19:30.940Z,28.22
2023-04-02T11:22:06.656Z,28.22
2023-04-02T11:24:46.837Z,28.23
2023-04-02T11:27:29.978Z,28.22
2023-04-02T11:30:28.036Z,28.21
2023-04-02T11:33:44.779Z,28.19
2023-04-02T11:37:11.073Z,28.17
2023-04-02T11:39:59.828Z,28.14
2023-04-02T11:42:33.677Z,28.12
2023-04-02T11:46:00.119Z,28.10
2023-04-02T11:48:34.226Z,28.06
2023-04-02T11:51:13.032Z,28.04
2023-04-02T11:53:46.333Z,28.03
2023-04-02T11:56:24.904Z,28.02
2023-04-02T11:59:13.267Z,28.00
2023-04-02T12:02:08.610Z,27.98
2023-04-02T12:05:09.630Z,27.96
2023-04-02T12:08:18.792Z,27.94
2023-04-02T12:11:01.586Z,27.93
2023-04-02T12:13:53.443Z,27.93
2023-04-02T12:16:31.596Z,27.93
2023-04-02T12:19:04.960Z,27.92
2023-04-02T12:21:35.996Z,27.92
2023-04-02T12:24:07.529Z,27.93
2023-04-02T12:26:42.745Z,27.92
2023-04-02T12:29:33.984Z,27.90
2023-04-02T12:32:04.694Z,27.87
2023-04-02T12:34:36.704Z,27.85
2023-04-02T12:37:08.967Z,27.82
2023-04-02T12:39:39.285Z,27.80
2023-04-02T12:42:29.651Z,27.78
2023-04-02T12:44:59.737Z,27.75
2023-04-02T12:47:31.596Z,27.75
2023-04-02T12:50:05.006Z,27.75
2023-04-02T12:52:35.666Z,27.73
2023-04-02T12:55:07.602Z,27.72
2023-04-02T12:57:42.801Z,27.70
2023-04-02T13:00:38.007Z,27.68
2023-04-02T13:03:29.086Z,27.65
2023-04-02T13:06:02.187Z,27.61
2023-04-02T13:08:44.130Z,27.61
2023-04-02T13:11:14.550Z,27.57
2023-04-02T13:13:48.846Z,27.56
2023-04-02T13:16:36.575Z,27.53
2023-04-02T13:19:26.352Z,27.51
2023-04-02T13:22:00.935Z,27.47
2023-04-02T13:24:35.436Z,27.46
2023-04-02T13:27:06.981Z,27.43
2023-04-02T13:29:39.114Z,27.40
2023-04-02T13:32:15.206Z,27.38
2023-04-02T13:34:45.591Z,27.35
2023-04-02T13:37:17.613Z,27.33
2023-04-02T13:39:48.491Z,27.31
2023-04-02T13:42:21.059Z,27.29
2023-04-02T13:44:51.589Z,27.27
2023-04-02T13:47:21.885Z,27.25
2023-04-02T13:49:52.584Z,27.23
2023-04-02T13:52:25.033Z,27.23
2023-04-02T13:55:01.838Z,27.21
2023-04-02T13:57:32.641Z,27.20
2023-04-02T14:00:03.475Z,27.18
2023-04-02T14:02:35.251Z,27.17
2023-04-02T14:05:24.206Z,27.15
2023-04-02T14:08:09.481Z,27.14
2023-04-02T14:11:02.320Z,27.12
2023-04-02T14:14:00.431Z,27.10
2023-04-02T14:16:51.987Z,27.09
2023-04-02T14:19:47.559Z,27.08
2023-04-02T14:22:36.956Z,27.06
2023-04-02T14:25:22.116Z,27.05
2023-04-02T14:28:05.488Z,27.03
2023-04-02T14:30:47.997Z,27.02
2023-04-02T14:33:36.790Z,27.00
2023-04-02T14:36:18.239Z,26.98
2023-04-02T14:38:59.822Z,26.97
2023-04-02T14:41:41.921Z,26.95
2023-04-02T14:44:15.360Z,26.93
2023-04-02T14:46:47.267Z,26.91
2023-04-02T14:49:28.057Z,26.91
2023-04-02T14:52:06.570Z,26.89
2023-04-02T14:54:41.425Z,26.88
2023-04-02T14:57:23.636Z,26.87
2023-04-02T15:00:06.072Z,26.85
2023-04-02T15:02:48.969Z,26.84
2023-04-02T15:05:23.509Z,26.83
2023-04-02T15:08:00.010Z,26.82
2023-04-02T15:10:34.555Z,26.81
2023-04-02T15:13:18.292Z,26.81
2023-04-02T15:15:57.055Z,26.78
2023-04-02T15:18:27.461Z,26.77
2023-04-02T15:21:12.128Z,26.76
2023-04-02T15:23:58.728Z,26.75
2023-04-02T15:26:41.548Z,26.73
2023-04-02T15:29:29.423Z,26.72
2023-04-02T15:32:12.582Z,26.71
2023-04-02T15:34:49.078Z,26.68
2023-04-02T15:37:31.258Z,26.67
2023-04-02T15:40:21.374Z,26.66
2023-04-02T15:43:03.454Z,26.64
2023-04-02T15:45:51.654Z,26.62
2023-04-02T15:49:03.796Z,26.60
2023-04-02T15:51:54.081Z,26.58
2023-04-02T15:54:53.738Z,26.57
2023-04-02T15:57:49.494Z,26.54
2023-04-02T16:00:33.875Z,26.52
2023-04-02T16:03:43.889Z,26.49
2023-04-02T16:06:32.931Z,26.47
2023-04-02T16:09:20.633Z,26.45
2023-04-02T16:11:58.064Z,26.43
2023-04-02T16:14:31.000Z,26.42
2023-04-02T16:17:21.459Z,26.41
2023-04-02T16:20:11.198Z,26.38
2023-04-02T16:22:57.200Z,26.36
2023-04-02T16:25:37.296Z,26.34
2023-04-02T16:28:26.006Z,26.33
2023-04-02T16:31:03.734Z,26.31
2023-04-02T16:33:53.798Z,26.29
2023-04-02T16:36:43.321Z,26.28
2023-04-02T16:39:29.117Z,26.25
2023-04-02T16:42:18.404Z,26.24
2023-04-02T16:45:05.438Z,26.23
2023-04-02T16:48:02.756Z,26.21
2023-04-02T16:50:49.637Z,26.20
2023-04-02T16:53:36.499Z,26.18
2023-04-02T16:56:29.319Z,26.17
2023-04-02T16:59:14.813Z,26.16
2023-04-02T17:01:57.725Z,26.13
2023-04-02T17:05:07.092Z,26.11
2023-04-02T17:07:46.326Z,26.09
2023-04-02T17:10:35.436Z,26.07
2023-04-02T17:13:21.600Z,26.05
2023-04-02T17:16:04.832Z,26.03
2023-04-02T17:18:36.393Z,26.02
2023-04-02T17:21:11.060Z,26.00
2023-04-02T17:26:31.358Z,25.98
2023-04-02T17:29:11.144Z,25.97
2023-04-02T17:31:43.141Z,25.95
2023-04-02T17:34:16.889Z,25.94
2023-04-02T17:37:00.945Z,25.93
2023-04-02T17:39:44.290Z,25.91
2023-04-02T17:42:32.532Z,25.90
2023-04-02T17:45:17.094Z,25.88
2023-04-02T17:48:00.428Z,25.88
2023-04-02T17:51:04.746Z,25.86
2023-04-02T17:53:51.804Z,25.85
2023-04-02T17:56:41.834Z,25.83
2023-04-02T17:59:42.489Z,25.82
2023-04-02T18:02:41.634Z,25.80
2023-04-02T18:05:27.346Z,25.79
2023-04-02T18:08:13.900Z,25.79
2023-04-02T18:11:03.027Z,25.77
2023-04-02T18:13:38.372Z,25.76
2023-04-02T18:16:32.599Z,25.75
2023-04-02T18:19:17.978Z,25.74
2023-04-02T18:22:01.230Z,25.73
2023-04-02T18:24:51.125Z,25.72
2023-04-02T18:27:51.103Z,25.71
2023-04-02T18:30:34.640Z,25.69
2023-04-02T18:33:41.178Z,25.68
2023-04-02T18:36:21.656Z,25.66
2023-04-02T18:39:03.711Z,25.66
2023-04-02T18:42:00.747Z,25.65
2023-04-02T18:44:54.019Z,25.63
2023-04-02T18:47:37.170Z,25.62
2023-04-02T18:50:20.349Z,25.61
2023-04-02T18:52:52.392Z,25.59
2023-04-02T18:55:27.707Z,25.58
2023-04-02T18:58:06.983Z,25.57
2023-04-02T19:00:42.762Z,25.56
2023-04-02T19:03:23.574Z,25.55
2023-04-02T19:06:03.732Z,25.54
2023-04-02T19:08:41.968Z,25.52
2023-04-02T19:11:18.740Z,25.51
2023-04-02T19:13:51.694Z,25.49
2023-04-02T19:16:47.536Z,25.48
2023-04-02T19:19:22.510Z,25.45
2023-04-02T19:22:17.656Z,25.44
2023-04-02T19:25:26.827Z,25.42
2023-04-02T19:28:14.152Z,25.40
2023-04-02T19:31:15.059Z,25.39
2023-04-02T19:33:55.007Z,25.39
2023-04-02T19:36:51.915Z,25.37
2023-04-02T19:40:07.127Z,25.35
2023-04-02T19:42:48.187Z,25.32
2023-04-02T19:45:41.324Z,25.32
2023-04-02T19:48:20.706Z,25.32
2023-04-02T19:50:52.250Z,25.31
2023-04-02T19:53:23.126Z,25.30
2023-04-02T19:55:55.897Z,25.30
2023-04-02T19:58:33.348Z,25.31
2023-04-02T20:01:04.844Z,25.29
2023-04-02T20:03:35.563Z,25.28
2023-04-02T20:06:06.322Z,25.27
2023-04-02T20:08:39.505Z,25.26
2023-04-02T20:11:12.316Z,25.26
2023-04-02T20:13:42.839Z,25.25
2023-04-02T20:16:14.869Z,25.24
2023-04-02T20:18:46.195Z,25.23
2023-04-02T20:21:16.206Z,25.22
2023-04-02T20:23:46.404Z,25.21
2023-04-02T20:26:18.966Z,25.20
2023-04-02T20:28:49.649Z,25.18
2023-04-02T20:31:21.929Z,25.17
2023-04-02T20:33:52.758Z,25.17
2023-04-02T20:36:23.209Z,25.15
2023-04-02T20:38:54.504Z,25.14
2023-04-02T20:41:27.002Z,25.13
2023-04-02T20:43:57.887Z,25.12
2023-04-02T20:46:27.940Z,25.12
2023-04-02T20:48:57.819Z,25.10
2023-04-02T20:51:28.283Z,25.10
2023-04-02T20:53:58.945Z,25.09
2023-04-02T20:56:31.564Z,25.09
2023-04-02T20:59:02.257Z,25.07
2023-04-02T21:01:35.065Z,25.06
2023-04-02T21:04:07.237Z,25.06
2023-04-02T21:06:41.654Z,25.06
2023-04-02T21:09:17.472Z,25.04
2023-04-02T21:11:50.269Z,25.03
2023-04-02T21:14:21.198Z,25.01
2023-04-02T21:16:51.719Z,25.01
2023-04-02T21:19:22.308Z,25.00
2023-04-02T21:21:52.739Z,24.98
2023-04-02T21:24:23.297Z,24.98
2023-04-02T21:26:55.859Z,24.97
2023-04-02T21:29:26.457Z,24.95
2023-04-02T21:31:58.471Z,24.95
2023-04-02T21:34:29.826Z,24.94
2023-04-02T21:37:00.299Z,24.93
2023-04-02T21:39:30.854Z,24.91
2023-04-02T21:42:03.107Z,24.90
2023-04-02T21:44:33.664Z,24.88
2023-04-02T21:47:04.252Z,24.87
2023-04-02T21:49:35.727Z,24.85
2023-04-02T21:52:05.703Z,24.85
2023-04-02T21:54:35.935Z,24.83
2023-04-02T21:57:08.486Z,24.83
2023-04-02T21:59:38.810Z,24.82
2023-04-02T22:02:09.314Z,24.81
2023-04-02T22:04:39.043Z,24.80
2023-04-02T22:07:09.248Z,24.78
2023-04-02T22:09:39.307Z,24.79
2023-04-02T22:12:12.848Z,24.78
2023-04-02T22:14:43.345Z,24.76
2023-04-02T22:17:13.955Z,24.75
2023-04-02T22:19:44.381Z,24.74
2023-04-02T22:22:14.388Z,24.73
2023-04-02T22:24:44.623Z,24.71
2023-04-02T22:27:16.325Z,24.71
2023-04-02T22:29:46.786Z,24.70
2023-04-02T22:32:17.459Z,24.68
2023-04-02T22:34:47.441Z,24.67
2023-04-02T22:37:17.853Z,24.65
2023-04-02T22:39:48.613Z,24.64
2023-04-02T22:42:21.577Z,24.62
2023-04-02T22:44:51.926Z,24.60
2023-04-02T22:47:22.375Z,24.58
2023-04-02T22:49:52.655Z,24.55
2023-04-02T22:52:23.204Z,24.55
2023-04-02T22:54:53.636Z,24.53
2023-04-02T22:57:25.687Z,24.54
2023-04-02T22:59:56.270Z,24.52
2023-04-02T23:02:26.465Z,24.51
2023-04-02T23:04:57.116Z,24.49
2023-04-02T23:07:27.808Z,24.49
2023-04-02T23:09:58.365Z,24.48
2023-04-02T23:12:31.149Z,24.47
2023-04-02T23:15:03.129Z,24.46
2023-04-02T23:17:33.610Z,24.45
2023-04-02T23:20:04.231Z,24.43
2023-04-02T23:22:34.468Z,24.42
2023-04-02T23:25:04.557Z,24.41
2023-04-02T23:27:37.556Z,24.41
2023-04-02T23:30:09.582Z,24.38
2023-04-02T23:32:40.177Z,24.37
2023-04-02T23:35:11.318Z,24.37
2023-04-02T23:37:42.371Z,24.36
2023-04-02T23:40:13.967Z,24.36
2023-04-02T23:42:46.495Z,24.34
2023-04-02T23:45:18.410Z,24.33
2023-04-02T23:47:48.859Z,24.32
2023-04-02T23:50:19.350Z,24.31
2023-04-02T23:52:49.467Z,24.30
2023-04-02T23:55:20.141Z,24.30
2023-04-02T23:57:52.154Z,24.28
